Terminal Aerodrome Forecast
Issued by NWS

Home | Current Version | Previous Version | Text Only | Print | Product List | Glossary On
Versions: 1 2 3 4 5 6 7 8 9 10 11 12 13 14 15 16
000
FTAK31 PAFA 171738
TAFAGA
TAF
PAGA 171738Z 1718/1818 27008KT 6SM -SN BR SCT025 BKN035
     FM172100 29006KT P6SM VCSH SCT025 BKN035
     FM180600 08005KT P6SM SCT040=

USA.gov is the U.S. government's official web portal to all federal, state and local government web resources and services.